Royal Oaks, California
Current Conditions -  °F | °C
As of 2:25 PM on Friday 19 Dec 2014 (Local Time) from KWVI Reporting Station
Overcast Overcast  
Wind Chill: 58°   Ceiling: 2500
Heat Index: 58°   Visibility: 10mi
Dew Point: 53°   Wind: 0mph
Humidity: 84%   Direction: NA
Pressure: 30.16"   Gusts: NA
Location:  36.9274°N, 121.747°W
Report Text: KWVI 192225Z AUTO 00000KT 10SM SCT017 BKN025 OVC048 14/12 A3016 RMK AO2 RAE21 P0001 T01440117
Loading
Personal Weather Stations






























Interactive Weather Map New forecast layout! Learn more

10-Day Weather Forecast

Advertisements
Track Severe Weather on mobile